Naponee, Nebraska
Current Conditions -  °F | °C
As of 2:35 PM on Friday 21 Nov 2014 (Local Time) from KHDE Reporting Station
Clear Clear  
Wind Chill: 44°   Ceiling: Unl
Heat Index: 49°   Visibility: 10mi
Dew Point: 29°   Wind: 10mph
Humidity: 47%   Direction: 180°S
Pressure: 29.96"   Gusts: NA
Location:  40.08°N, 99.14°W
Report Text: KHDE 212035Z AUTO 18009KT 10SM CLR 09/M01 A2996 RMK AO2 T00931014
Loading
Personal Weather Stations






























Interactive Weather Map New forecast layout! Learn more

10-Day Weather Forecast

Advertisements
Track Severe Weather on mobile